createdAt,value
2022-09-14T00:00:21.307Z,100265.09
2022-09-14T00:03:00.736Z,100255.44
2022-09-14T00:05:42.842Z,100256.44
2022-09-14T00:08:23.444Z,100259.47
2022-09-14T00:11:06.920Z,100256.34
2022-09-14T00:13:47.762Z,100262.69
2022-09-14T00:16:29.559Z,100267.41
2022-09-14T00:19:17.005Z,100262.41
2022-09-14T00:21:58.201Z,100263.78
2022-09-14T00:24:40.311Z,100271.78
2022-09-14T00:27:19.718Z,100261.09
2022-09-14T00:29:59.510Z,100258.06
2022-09-14T00:32:39.375Z,100255.06
2022-09-14T00:35:21.120Z,100234.53
2022-09-14T00:38:02.588Z,100233.72
2022-09-14T00:40:44.051Z,100223.03
2022-09-14T00:43:23.355Z,100218.69
2022-09-14T00:46:03.489Z,100220.53
2022-09-14T00:48:42.982Z,100218.53
2022-09-14T00:51:25.246Z,100219.50
2022-09-14T00:54:25.112Z,100222.38
2022-09-14T00:57:06.925Z,100226.03
2022-09-14T00:59:50.910Z,100220.06
2022-09-14T01:02:33.607Z,100222.91
2022-09-14T01:05:16.038Z,100219.22
2022-09-14T01:08:02.260Z,100207.72
2022-09-14T01:10:51.968Z,100201.19
2022-09-14T01:13:37.179Z,100196.69
2022-09-14T01:16:22.363Z,100194.03
2022-09-14T01:19:24.642Z,100211.50
2022-09-14T01:22:10.101Z,100214.84
2022-09-14T01:24:55.324Z,100216.00
2022-09-14T01:27:35.857Z,100218.53
2022-09-14T01:30:28.439Z,100227.50
2022-09-14T01:33:10.931Z,100212.69
2022-09-14T01:35:53.860Z,100211.69
2022-09-14T01:38:38.570Z,100207.72
2022-09-14T01:41:21.921Z,100217.56
2022-09-14T01:44:08.496Z,100218.88
2022-09-14T01:46:50.795Z,100213.53
2022-09-14T01:49:35.685Z,100211.69
2022-09-14T01:52:20.641Z,100220.06
2022-09-14T01:55:02.795Z,100205.88
2022-09-14T01:57:45.426Z,100191.72
2022-09-14T02:00:24.840Z,100193.75
2022-09-14T02:03:07.719Z,100190.06
2022-09-14T02:05:52.087Z,100190.06
2022-09-14T02:08:33.128Z,100194.13
2022-09-14T02:11:12.324Z,100191.44
2022-09-14T02:13:51.771Z,100187.94
2022-09-14T02:16:31.753Z,100179.13
2022-09-14T02:19:11.553Z,100180.97
2022-09-14T02:21:51.160Z,100187.84
2022-09-14T02:24:31.635Z,100183.50
2022-09-14T02:27:12.340Z,100185.19
2022-09-14T02:29:52.950Z,100186.16
2022-09-14T02:32:37.054Z,100182.03
2022-09-14T02:35:24.094Z,100179.72
2022-09-14T02:38:13.224Z,100183.22
2022-09-14T02:40:56.222Z,100183.59
2022-09-14T02:43:42.767Z,100183.59
2022-09-14T02:46:27.586Z,100183.09
2022-09-14T02:49:12.402Z,100173.94
2022-09-14T02:51:58.215Z,100177.75
2022-09-14T02:54:44.695Z,100176.09
2022-09-14T02:57:26.850Z,100164.78
2022-09-14T03:00:07.085Z,100162.97
2022-09-14T03:02:50.477Z,100161.31
2022-09-14T03:05:30.707Z,100165.97
2022-09-14T03:08:11.136Z,100161.81
2022-09-14T03:10:51.721Z,100173.50
2022-09-14T03:13:34.450Z,100179.84
2022-09-14T03:16:15.799Z,100174.69
2022-09-14T03:18:58.095Z,100171.38
2022-09-14T03:21:40.448Z,100166.03
2022-09-14T03:24:20.309Z,100154.38
2022-09-14T03:27:02.118Z,100146.38
2022-09-14T03:29:43.525Z,100140.38
2022-09-14T03:32:22.951Z,100142.22
2022-09-14T03:35:02.759Z,100129.25
2022-09-14T03:37:45.890Z,100124.94
2022-09-14T03:40:26.310Z,100131.63
2022-09-14T03:43:05.799Z,100129.81
2022-09-14T03:45:47.186Z,100130.78
2022-09-14T03:48:30.299Z,100125.66
2022-09-14T03:51:10.879Z,100117.81
2022-09-14T03:53:51.087Z,100117.19
2022-09-14T03:56:32.868Z,100128.41
2022-09-14T03:59:12.381Z,100118.09
2022-09-14T04:01:52.077Z,100122.97
2022-09-14T04:04:33.883Z,100123.13
2022-09-14T04:07:25.035Z,100122.66
2022-09-14T04:10:08.526Z,100113.81
2022-09-14T04:12:47.910Z,100112.06
2022-09-14T04:15:29.259Z,100114.56
2022-09-14T04:18:19.630Z,100125.13
2022-09-14T04:21:05.798Z,100109.13
2022-09-14T04:24:13.563Z,100108.63
2022-09-14T04:26:48.673Z,100114.13
2022-09-14T04:29:30.278Z,100114.31
2022-09-14T04:32:09.926Z,100107.88
2022-09-14T04:34:50.651Z,100108.41
2022-09-14T04:37:33.009Z,100105.06
2022-09-14T04:40:12.932Z,100116.09
2022-09-14T04:42:54.327Z,100113.13
2022-09-14T04:45:33.714Z,100118.66
2022-09-14T04:48:13.572Z,100113.13
2022-09-14T04:50:53.405Z,100110.66
2022-09-14T04:53:34.564Z,100107.34
2022-09-14T04:56:18.300Z,100106.03
2022-09-14T04:58:59.510Z,100102.56
2022-09-14T05:01:40.700Z,100101.53
2022-09-14T05:04:20.415Z,100105.22
2022-09-14T05:07:00.153Z,100110.38
2022-09-14T05:09:40.012Z,100104.38
2022-09-14T05:12:19.848Z,100102.56
2022-09-14T05:14:59.579Z,100101.88
2022-09-14T05:17:51.199Z,100103.56
2022-09-14T05:20:33.129Z,100107.06
2022-09-14T05:23:12.443Z,100113.03
2022-09-14T05:25:54.631Z,100108.34
2022-09-14T05:28:36.182Z,100100.34
2022-09-14T05:31:17.097Z,100088.69
2022-09-14T05:33:58.924Z,100101.84
2022-09-14T05:36:40.457Z,100101.47
2022-09-14T05:39:23.432Z,100094.66
2022-09-14T05:42:03.991Z,100103.66
2022-09-14T05:44:43.683Z,100096.31
2022-09-14T05:47:23.491Z,100093.94
2022-09-14T05:50:03.309Z,100093.59
2022-09-14T05:52:43.136Z,100098.59
2022-09-14T05:55:22.916Z,100092.53
2022-09-14T05:58:05.744Z,100095.31
2022-09-14T06:00:49.755Z,100100.75
2022-09-14T06:03:30.300Z,100089.56
2022-09-14T06:06:12.260Z,100089.84
2022-09-14T06:08:54.038Z,100079.63
2022-09-14T06:11:37.145Z,100090.78
2022-09-14T06:14:19.877Z,100084.91
2022-09-14T06:16:59.004Z,100070.19
2022-09-14T06:19:38.763Z,100066.97
2022-09-14T06:22:18.540Z,100073.63
2022-09-14T06:24:58.665Z,100062.22
2022-09-14T06:27:38.220Z,100067.38
2022-09-14T06:30:18.060Z,100063.63
2022-09-14T06:32:59.820Z,100064.44
2022-09-14T06:35:42.094Z,100071.38
2022-09-14T06:38:22.211Z,100072.47
2022-09-14T06:41:04.525Z,100075.44
2022-09-14T06:43:45.424Z,100076.34
2022-09-14T06:46:26.735Z,100078.25
2022-09-14T06:49:10.630Z,100078.53
2022-09-14T06:51:51.329Z,100070.22
2022-09-14T06:54:30.864Z,100070.34
2022-09-14T06:57:12.419Z,100072.25
2022-09-14T06:59:53.826Z,100072.31
2022-09-14T07:02:33.537Z,100071.38
2022-09-14T07:05:15.774Z,100073.09
2022-09-14T07:07:56.078Z,100075.69
2022-09-14T07:10:35.918Z,100085.84
2022-09-14T07:13:15.682Z,100084.91
2022-09-14T07:15:55.913Z,100093.81
2022-09-14T07:18:37.441Z,100093.81
2022-09-14T07:21:18.826Z,100091.94
2022-09-14T07:23:58.352Z,100091.59
2022-09-14T07:26:42.214Z,100088.63
2022-09-14T07:29:22.823Z,100084.41
2022-09-14T07:32:02.885Z,100085.50
2022-09-14T07:34:42.142Z,100083.78
2022-09-14T07:37:22.081Z,100088.59
2022-09-14T07:40:02.143Z,100080.81
2022-09-14T07:42:41.554Z,100095.31
2022-09-14T07:45:21.650Z,100096.34
2022-09-14T07:48:01.232Z,100098.50
2022-09-14T07:50:42.976Z,100103.91
2022-09-14T07:53:22.384Z,100102.13
2022-09-14T07:56:03.001Z,100100.13
2022-09-14T07:58:45.988Z,100091.31
2022-09-14T08:01:28.476Z,100097.13
2022-09-14T08:04:09.265Z,100104.97
2022-09-14T08:06:49.416Z,100094.47
2022-09-14T08:09:31.415Z,100095.75
2022-09-14T08:12:10.642Z,100095.97
2022-09-14T08:14:53.547Z,100096.59
2022-09-14T08:17:32.297Z,100086.63
2022-09-14T08:20:16.307Z,100104.16
2022-09-14T08:22:56.280Z,100102.88
2022-09-14T08:25:36.132Z,100105.34
2022-09-14T08:28:15.930Z,100100.50
2022-09-14T08:30:55.724Z,100094.59
2022-09-14T08:33:36.877Z,100093.00
2022-09-14T08:36:18.416Z,100095.81
2022-09-14T08:38:58.709Z,100099.16
2022-09-14T08:41:41.146Z,100096.75
2022-09-14T08:44:25.701Z,100118.44
2022-09-14T08:47:10.018Z,100113.91
2022-09-14T08:49:54.902Z,100118.06
2022-09-14T08:52:39.750Z,100122.25
2022-09-14T08:55:25.258Z,100109.22
2022-09-14T08:58:16.142Z,100112.75
2022-09-14T09:01:04.199Z,100116.78
2022-09-14T09:03:56.396Z,100123.81
2022-09-14T09:06:44.524Z,100120.09
2022-09-14T09:09:32.192Z,100127.69
2022-09-14T09:12:14.663Z,100109.34
2022-09-14T09:14:55.904Z,100104.03
2022-09-14T09:17:39.473Z,100110.56
2022-09-14T09:20:24.352Z,100106.84
2022-09-14T09:23:12.593Z,100110.44
2022-09-14T09:25:56.467Z,100100.34
2022-09-14T09:28:35.775Z,100089.91
2022-09-14T09:31:16.182Z,100098.13
2022-09-14T09:34:26.009Z,100092.66
2022-09-14T09:37:05.524Z,100100.59
2022-09-14T09:39:45.603Z,100091.03
2022-09-14T09:42:26.858Z,100100.06
2022-09-14T09:45:10.146Z,100097.34
2022-09-14T09:47:49.596Z,100101.31
2022-09-14T09:50:29.381Z,100114.53
2022-09-14T09:53:17.137Z,100115.31
2022-09-14T09:55:57.351Z,100116.63
2022-09-14T09:58:38.529Z,100111.66
2022-09-14T10:01:33.947Z,100112.53
2022-09-14T10:04:19.302Z,100095.06
2022-09-14T10:06:59.185Z,100094.69
2022-09-14T10:09:39.117Z,100087.66
2022-09-14T10:12:25.701Z,100094.41
2022-09-14T10:15:12.022Z,100080.81
2022-09-14T10:18:07.228Z,100073.69
2022-09-14T10:21:07.967Z,100068.22
2022-09-14T10:23:48.207Z,100068.63
2022-09-14T10:26:28.675Z,100065.91
2022-09-14T10:29:35.057Z,100074.44
2022-09-14T10:32:24.025Z,100074.22
2022-09-14T10:35:02.569Z,100080.81
2022-09-14T10:37:51.465Z,100077.16
2022-09-14T10:40:37.221Z,100077.34
2022-09-14T10:44:11.480Z,100072.66
2022-09-14T10:47:04.738Z,100085.88
2022-09-14T10:49:54.639Z,100081.81
2022-09-14T10:52:42.744Z,100067.25
2022-09-14T10:55:34.241Z,100071.59
2022-09-14T10:58:27.531Z,100065.25
2022-09-14T11:01:25.263Z,100072.19
2022-09-14T11:04:16.154Z,100056.75
2022-09-14T11:07:03.786Z,100061.72
2022-09-14T11:09:49.546Z,100068.63
2022-09-14T11:12:35.204Z,100079.41
2022-09-14T11:15:24.229Z,100068.03
2022-09-14T11:18:16.073Z,100067.44
2022-09-14T11:21:05.443Z,100068.63
2022-09-14T11:23:52.351Z,100047.03
2022-09-14T11:26:42.162Z,100058.84
2022-09-14T11:29:25.680Z,100060.97
2022-09-14T11:32:20.746Z,100066.25
2022-09-14T11:35:11.828Z,100075.56
2022-09-14T11:37:56.980Z,100073.97
2022-09-14T11:40:45.032Z,100070.09
2022-09-14T11:43:27.967Z,100060.28
2022-09-14T11:46:11.559Z,100054.91
2022-09-14T11:48:56.100Z,100066.16
2022-09-14T11:51:42.353Z,100068.25
2022-09-14T11:54:23.456Z,100062.38
2022-09-14T11:57:04.779Z,100052.13
2022-09-14T11:59:53.298Z,100056.16
2022-09-14T12:03:02.682Z,100053.91
2022-09-14T12:05:44.732Z,100050.91
2022-09-14T12:08:38.021Z,100053.13
2022-09-14T12:11:33.294Z,100062.88
2022-09-14T12:14:31.529Z,100060.75
2022-09-14T12:17:40.585Z,100066.25
2022-09-14T12:20:35.314Z,100061.34
2022-09-14T12:23:30.098Z,100062.91
2022-09-14T12:26:29.347Z,100060.09
2022-09-14T12:29:32.607Z,100062.63
2022-09-14T12:32:39.925Z,100066.72
2022-09-14T12:35:49.092Z,100062.69
2022-09-14T12:38:44.266Z,100063.75
2022-09-14T12:42:00.479Z,100055.53
2022-09-14T12:44:43.394Z,100057.03
2022-09-14T12:47:59.038Z,100054.72
2022-09-14T12:50:40.348Z,100047.78
2022-09-14T12:53:29.067Z,100045.78
2022-09-14T12:56:17.640Z,100050.38
2022-09-14T12:59:04.981Z,100045.34
2022-09-14T13:01:49.842Z,100037.84
2022-09-14T13:04:33.785Z,100017.66
2022-09-14T13:07:31.305Z,100027.88
2022-09-14T13:10:26.291Z,100024.91
2022-09-14T13:13:10.008Z,100026.31
2022-09-14T13:15:54.532Z,100023.41
2022-09-14T13:18:36.594Z,100020.94
2022-09-14T13:21:21.387Z,100014.25
2022-09-14T13:24:00.889Z,100011.44
2022-09-14T13:26:40.703Z,100005.56
2022-09-14T13:29:20.548Z,100006.88
2022-09-14T13:32:03.773Z,99999.00
2022-09-14T13:34:43.366Z,99997.13
2022-09-14T13:37:25.956Z,99996.31
2022-09-14T13:40:08.007Z,99991.16
2022-09-14T13:42:49.569Z,99996.09
2022-09-14T13:45:31.045Z,99976.22
2022-09-14T13:48:15.012Z,99979.16
2022-09-14T13:50:55.230Z,99982.31
2022-09-14T13:53:48.460Z,99973.75
2022-09-14T13:56:31.736Z,99976.34
2022-09-14T13:59:17.172Z,99970.81
2022-09-14T14:01:58.969Z,99959.81
2022-09-14T14:04:40.188Z,99964.84
2022-09-14T14:07:40.225Z,99969.03
2022-09-14T14:10:26.384Z,99962.44
2022-09-14T14:13:06.504Z,99953.91
2022-09-14T14:16:19.967Z,99957.88
2022-09-14T14:19:00.189Z,99950.84
2022-09-14T14:21:41.938Z,99947.94
2022-09-14T14:24:28.022Z,99940.41
2022-09-14T14:27:07.713Z,99938.06
2022-09-14T14:29:47.284Z,99936.44
2022-09-14T14:32:28.278Z,99941.00
2022-09-14T14:35:15.899Z,99934.03
2022-09-14T14:37:56.641Z,99931.19
2022-09-14T14:40:36.273Z,99924.16
2022-09-14T14:43:19.588Z,99930.81
2022-09-14T14:46:01.908Z,99925.06
2022-09-14T14:48:41.918Z,99922.22
2022-09-14T14:51:23.667Z,99923.88
2022-09-14T14:54:03.097Z,99925.75
2022-09-14T14:56:44.003Z,99915.19
2022-09-14T14:59:36.906Z,99912.97
2022-09-14T15:02:17.483Z,99910.72
2022-09-14T15:04:57.307Z,99903.69
2022-09-14T15:07:39.225Z,99906.50
2022-09-14T15:10:19.280Z,99904.63
2022-09-14T15:13:00.165Z,99912.31
2022-09-14T15:15:41.335Z,99904.22
2022-09-14T15:18:21.124Z,99900.34
2022-09-14T15:21:01.008Z,99911.56
2022-09-14T15:23:39.818Z,99904.78
2022-09-14T15:26:19.065Z,99906.28
2022-09-14T15:28:58.846Z,99904.19
2022-09-14T15:31:37.403Z,99895.53
2022-09-14T15:34:16.982Z,99896.09
2022-09-14T15:36:57.898Z,99896.34
2022-09-14T15:39:38.006Z,99903.59
2022-09-14T15:42:17.798Z,99904.47
2022-09-14T15:44:57.815Z,99900.75
2022-09-14T15:47:42.779Z,99903.44
2022-09-14T15:50:24.606Z,99899.91
2022-09-14T15:53:05.226Z,99894.09
2022-09-14T15:55:45.935Z,99888.50
2022-09-14T15:58:30.823Z,99890.13
2022-09-14T16:01:11.158Z,99893.28
2022-09-14T16:03:50.659Z,99895.97
2022-09-14T16:06:31.357Z,99891.59
2022-09-14T16:09:15.390Z,99908.81
2022-09-14T16:11:57.256Z,99904.25
2022-09-14T16:14:55.647Z,99884.59
2022-09-14T16:17:34.685Z,99892.53
2022-09-14T16:20:14.307Z,99888.06
2022-09-14T16:22:53.866Z,99885.38
2022-09-14T16:25:40.483Z,99889.16
2022-09-14T16:28:21.951Z,99883.19
2022-09-14T16:31:10.839Z,99876.63
2022-09-14T16:33:53.093Z,99881.63
2022-09-14T16:36:35.599Z,99872.78
2022-09-14T16:39:17.151Z,99873.91
2022-09-14T16:41:57.471Z,99881.59
2022-09-14T16:45:10.566Z,99886.06
2022-09-14T16:47:50.351Z,99884.19
2022-09-14T16:50:32.204Z,99880.31
2022-09-14T16:53:13.564Z,99874.56
2022-09-14T16:55:52.965Z,99877.88
2022-09-14T16:58:33.459Z,99875.06
2022-09-14T17:01:14.746Z,99875.94
2022-09-14T17:03:55.177Z,99876.00
2022-09-14T17:06:37.194Z,99872.31
2022-09-14T17:09:18.560Z,99864.09
2022-09-14T17:11:58.762Z,99869.16
2022-09-14T17:14:42.130Z,99855.41
2022-09-14T17:17:22.692Z,99850.66
2022-09-14T17:20:02.947Z,99852.81
2022-09-14T17:22:42.273Z,99855.53
2022-09-14T17:25:24.676Z,99852.47
2022-09-14T17:28:27.156Z,99850.28
2022-09-14T17:31:09.463Z,99840.63
2022-09-14T17:33:48.831Z,99841.94
2022-09-14T17:36:30.533Z,99835.75
2022-09-14T17:39:12.476Z,99834.75
2022-09-14T17:41:52.889Z,99842.22
2022-09-14T17:44:32.688Z,99843.31
2022-09-14T17:47:12.544Z,99842.53
2022-09-14T17:49:54.293Z,99840.91
2022-09-14T17:52:36.523Z,99839.06
2022-09-14T17:55:16.879Z,99838.25
2022-09-14T17:58:07.212Z,99843.00
2022-09-14T18:00:46.812Z,99843.03
2022-09-14T18:03:28.367Z,99847.97
2022-09-14T18:06:11.964Z,99844.72
2022-09-14T18:08:55.894Z,99854.22
2022-09-14T18:11:36.257Z,99850.09
2022-09-14T18:14:16.949Z,99856.31
2022-09-14T18:16:58.186Z,99856.31
2022-09-14T18:19:40.017Z,99860.03
2022-09-14T18:22:21.361Z,99867.06
2022-09-14T18:25:01.073Z,99871.38
2022-09-14T18:27:40.832Z,99868.69
2022-09-14T18:30:20.555Z,99876.13
2022-09-14T18:33:00.221Z,99861.69
2022-09-14T18:35:42.085Z,99860.44
2022-09-14T18:38:24.036Z,99863.75
2022-09-14T18:41:05.559Z,99868.69
2022-09-14T18:43:47.252Z,99879.22
2022-09-14T18:46:29.643Z,99875.91
2022-09-14T18:49:10.812Z,99881.22
2022-09-14T18:51:50.098Z,99883.25
2022-09-14T18:54:31.925Z,99886.34
2022-09-14T18:57:11.300Z,99884.28
2022-09-14T18:59:51.103Z,99890.84
2022-09-14T19:02:31.203Z,99876.03
2022-09-14T19:05:11.072Z,99883.44
2022-09-14T19:07:52.663Z,99883.84
2022-09-14T19:10:32.316Z,99887.97
2022-09-14T19:13:13.792Z,99885.91
2022-09-14T19:15:55.917Z,99890.22
2022-09-14T19:18:38.416Z,99887.50
2022-09-14T19:21:31.774Z,99884.00
2022-09-14T19:24:14.071Z,99882.78
2022-09-14T19:26:53.782Z,99883.13
2022-09-14T19:29:33.633Z,99889.91
2022-09-14T19:32:13.802Z,99895.06
2022-09-14T19:34:51.995Z,99891.56
2022-09-14T19:37:41.960Z,99885.38
2022-09-14T19:40:23.680Z,99880.44
2022-09-14T19:43:02.842Z,99880.44
2022-09-14T19:45:44.577Z,99888.63
2022-09-14T19:48:25.261Z,99900.94
2022-09-14T19:51:09.117Z,99897.25
2022-09-14T19:53:51.886Z,99896.41
2022-09-14T19:56:33.692Z,99893.31
2022-09-14T19:59:12.939Z,99885.69
2022-09-14T20:01:52.870Z,99892.25
2022-09-14T20:04:32.543Z,99895.78
2022-09-14T20:07:12.267Z,99896.34
2022-09-14T20:09:52.068Z,99900.03
2022-09-14T20:12:31.850Z,99912.56
2022-09-14T20:15:12.452Z,99903.28
2022-09-14T20:18:12.290Z,99904.09
2022-09-14T20:20:52.132Z,99903.28
2022-09-14T20:23:31.913Z,99897.13
2022-09-14T20:26:13.988Z,99904.94
2022-09-14T20:28:53.327Z,99903.91
2022-09-14T20:31:32.996Z,99906.59
2022-09-14T20:34:13.633Z,99903.44
2022-09-14T20:36:56.399Z,99905.13
2022-09-14T20:39:38.166Z,99907.59
2022-09-14T20:42:18.529Z,99897.94
2022-09-14T20:44:58.409Z,99898.75
2022-09-14T20:47:40.181Z,99902.47
2022-09-14T20:50:21.556Z,99900.78
2022-09-14T20:53:01.492Z,99901.44
2022-09-14T20:55:40.916Z,99900.63
2022-09-14T20:58:22.610Z,99895.50
2022-09-14T21:01:06.788Z,99901.47
2022-09-14T21:03:47.800Z,99898.38
2022-09-14T21:06:28.167Z,99904.38
2022-09-14T21:09:08.666Z,99901.69
2022-09-14T21:11:49.263Z,99899.84
2022-09-14T21:14:29.748Z,99895.56
2022-09-14T21:17:08.831Z,99896.00
2022-09-14T21:19:50.639Z,99902.59
2022-09-14T21:22:30.036Z,99906.09
2022-09-14T21:25:11.308Z,99905.47
2022-09-14T21:27:51.285Z,99907.97
2022-09-14T21:30:33.373Z,99911.28
2022-09-14T21:33:12.805Z,99903.25
2022-09-14T21:35:52.299Z,99912.94
2022-09-14T21:38:31.153Z,99916.63
2022-09-14T21:41:12.546Z,99922.34
2022-09-14T21:43:52.140Z,99918.44
2022-09-14T21:46:32.000Z,99922.56
2022-09-14T21:49:15.876Z,99915.16
2022-09-14T21:51:55.964Z,99919.09
2022-09-14T21:54:35.773Z,99919.94
2022-09-14T21:57:15.543Z,99909.03
2022-09-14T21:59:55.343Z,99920.34
2022-09-14T22:02:37.822Z,99923.22
2022-09-14T22:05:22.696Z,99923.03
2022-09-14T22:08:03.225Z,99923.22
2022-09-14T22:10:41.369Z,99918.09
2022-09-14T22:13:20.959Z,99918.09
2022-09-14T22:16:03.564Z,99912.13
2022-09-14T22:18:49.207Z,99915.97
2022-09-14T22:21:34.946Z,99904.66
2022-09-14T22:24:17.243Z,99915.97
2022-09-14T22:26:58.005Z,99914.94
2022-09-14T22:29:37.757Z,99915.53
2022-09-14T22:32:19.227Z,99917.78
2022-09-14T22:34:58.421Z,99911.63
2022-09-14T22:37:38.445Z,99912.81
2022-09-14T22:40:18.161Z,99912.38
2022-09-14T22:42:58.065Z,99915.47
2022-09-14T22:45:39.754Z,99914.84
2022-09-14T22:48:21.631Z,99909.06
2022-09-14T22:51:02.290Z,99906.78
2022-09-14T22:53:42.109Z,99915.00
2022-09-14T22:56:24.398Z,99907.34
2022-09-14T22:59:06.094Z,99901.16
2022-09-14T23:01:46.275Z,99907.69
2022-09-14T23:04:38.431Z,99904.00
2022-09-14T23:07:19.215Z,99908.91
2022-09-14T23:10:00.959Z,99899.81
2022-09-14T23:12:40.332Z,99888.69
2022-09-14T23:15:22.220Z,99884.56
2022-09-14T23:18:01.497Z,99878.59
2022-09-14T23:20:44.748Z,99884.94
2022-09-14T23:23:26.419Z,99879.81
2022-09-14T23:26:09.312Z,99876.50
2022-09-14T23:28:53.377Z,99867.22
2022-09-14T23:31:52.679Z,99869.66
2022-09-14T23:34:32.436Z,99865.94
2022-09-14T23:37:12.251Z,99876.63
2022-09-14T23:40:08.596Z,99871.69
2022-09-14T23:42:50.465Z,99875.38
2022-09-14T23:45:32.071Z,99875.34
2022-09-14T23:48:13.397Z,99875.72
2022-09-14T23:50:58.506Z,99869.94
2022-09-14T23:53:41.909Z,99874.44
2022-09-14T23:56:21.930Z,99870.75
2022-09-14T23:59:01.695Z,99870.53
